createdAt,value
2023-01-10T16:33:52.969Z,7.00
2023-01-10T16:36:26.238Z,7.00
2023-01-10T16:39:01.185Z,6.90
2023-01-10T16:41:48.687Z,7.00
2023-01-10T16:44:19.300Z,7.00
2023-01-10T16:46:56.115Z,7.00
2023-01-10T16:49:29.322Z,7.00
2023-01-10T16:52:00.394Z,7.00
2023-01-10T16:54:31.379Z,7.00
2023-01-10T16:57:02.105Z,7.00
2023-01-10T16:59:30.295Z,7.00
2023-01-10T17:01:59.482Z,6.90
2023-01-10T17:04:32.758Z,6.90
2023-01-10T17:07:06.238Z,6.90
2023-01-10T17:09:38.578Z,6.90
2023-01-10T17:12:12.684Z,6.90
2023-01-10T17:14:40.968Z,7.00
2023-01-10T17:17:13.283Z,7.00
2023-01-10T17:19:44.641Z,7.00
2023-01-10T17:22:14.135Z,7.00
2023-01-10T17:24:47.489Z,7.00
2023-01-10T17:27:16.215Z,7.00
2023-01-10T17:29:44.813Z,7.00
2023-01-10T17:32:15.712Z,7.00
2023-01-10T17:34:45.551Z,6.90
2023-01-10T17:37:14.364Z,6.90
2023-01-10T17:39:46.870Z,6.80
2023-01-10T17:42:18.943Z,6.80
2023-01-10T17:44:49.521Z,6.80
2023-01-10T17:47:17.791Z,6.80
2023-01-10T17:49:48.015Z,6.90
2023-01-10T17:52:16.402Z,6.70
2023-01-10T17:54:47.753Z,6.80
2023-01-10T17:57:24.191Z,6.80
2023-01-10T17:59:54.882Z,6.90
2023-01-10T18:02:23.214Z,6.80
2023-01-10T18:04:53.034Z,6.90
2023-01-10T18:07:21.627Z,6.90
2023-01-10T18:12:20.776Z,6.80
2023-01-10T18:14:50.795Z,6.80
2023-01-10T18:17:19.702Z,6.80
2023-01-10T18:20:05.198Z,6.90
2023-01-10T18:22:53.058Z,6.90
2023-01-10T18:25:21.300Z,6.80
2023-01-10T18:27:53.419Z,6.80
2023-01-10T18:30:22.537Z,6.70
2023-01-10T18:32:51.666Z,6.60
2023-01-10T18:35:20.931Z,6.70
2023-01-10T18:37:55.333Z,6.50
2023-01-10T18:40:23.685Z,6.50
2023-01-10T18:45:28.144Z,6.50
2023-01-10T18:50:28.885Z,6.40
2023-01-10T18:53:00.025Z,6.50
2023-01-10T18:55:28.553Z,6.50
2023-01-10T18:57:56.882Z,6.30
2023-01-10T19:00:27.205Z,6.30
2023-01-10T19:02:57.788Z,6.30
2023-01-10T19:05:26.226Z,6.20
2023-01-10T19:07:59.817Z,6.20
2023-01-10T19:10:31.147Z,6.20
2023-01-10T19:13:03.868Z,6.20
2023-01-10T19:15:32.180Z,6.20
2023-01-10T19:18:06.429Z,6.20
2023-01-10T19:20:34.839Z,6.20
2023-01-10T19:23:04.742Z,6.30
2023-01-10T19:25:34.196Z,6.60
2023-01-10T19:30:32.550Z,6.40
2023-01-10T19:33:04.064Z,6.50
2023-01-10T19:38:07.577Z,6.50
2023-01-10T19:40:39.990Z,6.50
2023-01-10T19:43:10.834Z,6.50
2023-01-10T19:45:45.251Z,6.60
2023-01-10T19:51:08.842Z,6.50
2023-01-10T19:53:42.142Z,6.50
2023-01-10T19:58:51.010Z,6.40
2023-01-10T20:01:27.933Z,6.40
2023-01-10T20:03:58.402Z,6.30
2023-01-10T20:06:32.630Z,6.30
2023-01-10T20:09:05.707Z,6.40
2023-01-10T20:11:42.649Z,6.50
2023-01-10T20:14:17.345Z,6.60
2023-01-10T20:16:49.978Z,6.60
2023-01-10T20:19:21.420Z,6.60
2023-01-10T20:21:52.132Z,6.40
2023-01-10T20:26:51.990Z,6.60
2023-01-10T20:29:21.001Z,6.40
2023-01-10T20:31:57.617Z,6.30
2023-01-10T20:34:25.828Z,6.60
2023-01-10T20:36:56.380Z,6.00
2023-01-10T20:39:26.877Z,6.30
2023-01-10T20:41:55.311Z,6.00
2023-01-10T20:51:53.700Z,6.00
2023-01-10T20:54:22.151Z,6.30
2023-01-10T20:56:51.648Z,6.30
2023-01-10T20:59:19.912Z,5.90
2023-01-10T21:01:48.578Z,6.50
2023-01-10T21:06:46.955Z,6.10
2023-01-10T21:09:16.677Z,6.20
2023-01-10T21:12:04.128Z,6.20
2023-01-10T21:14:38.048Z,5.70
